Naikai2 — JD2433 — position and weather

sailwx.info

Track history (hours):
 
Tides and Currents Weather Stations Pressure Air Temp Water Temp Dewpoint Dewpoint Depression Visibility Wind Speed Wind Dir Waves Ship Positions

Naikai2

Last reported at 2016-Jun-25 03:25 UTC. Time now 2016-Jun-26 10:10 UTC.
Position N 34°39' E 135°10'.

Length 28 m; draft 2.2 m.

Type: Other ship. MMSI: 431000283.

Date/timePositionNaut miles runAvg speedWind from/ knotsBaromVisibWave heightAir tempDewpointWater temp
2016-Jun-25 03:25N 34°39' E 135°10'7 8.3
2016-Jun-25 02:33N 34°37' E 135°02'1 0.7
2016-Jun-25 01:33N 34°36' E 135°01'8 8.0
2016-Jun-25 00:33N 34°39' E 135°10'20 1.0
2016-Jun-24 04:26N 34°21' E 134°60'1213.7
2016-Jun-24 03:33N 34°29' E 135°10'1110.6
2016-Jun-24 02:33N 34°33' E 135°22'1 0.7
2016-Jun-24 01:33N 34°34' E 135°22'1111.2
2016-Jun-24 00:33N 34°39' E 135°10'1 0.3
2016-Jun-23 19:34N 34°38' E 135°09'10 9.6
2016-Jun-23 18:34N 34°37' E 134°57'9 8.6
2016-Jun-23 17:33N 34°35' E 135°07'5 4.7
2016-Jun-23 16:33N 34°39' E 135°10'1 0.1
2016-Jun-23 02:33N 34°40' E 135°11'8 8.5
2016-Jun-23 01:33N 34°36' E 135°19'3 2.5
2016-Jun-23 00:31N 34°33' E 135°21'1010.3
2016-Jun-22 23:32N 34°28' E 135°11'1512.7
2016-Jun-22 22:23N 34°16' E 134°59'1 0.7
2016-Jun-22 21:16N 34°17' E 134°59'1113.6
2016-Jun-22 20:27N 34°27' E 135°03'1314.3
2016-Jun-22 19:34N 34°39' E 135°10'0 0.0
2016-Jun-22 00:04N 34°39' E 135°10'712.9
2016-Jun-21 23:33N 34°36' E 135°02'2 1.6
2016-Jun-21 22:34N 34°36' E 135°04'6 5.7
2016-Jun-21 21:33N 34°39' E 135°10'0 0.0
2016-Jun-21 13:14N 34°39' E 135°10'911.2
2016-Jun-21 12:26N 34°38' E 134°59'6 6.6
2016-Jun-21 11:34N 34°35' E 135°05'2 2.1
2016-Jun-21 10:33N 34°36' E 135°03'2 1.9
2016-Jun-21 09:33N 34°36' E 135°01'0 0.0
2016-Jun-21 08:33N 34°36' E 135°01'4 2.8
2016-Jun-21 07:17N 34°36' E 134°56'12 6.8
2016-Jun-21 05:34N 34°39' E 135°10'7 0.7
2016-Jun-20 19:30N 34°38' E 135°02'3 3.2
2016-Jun-20 18:33N 34°36' E 135°05'5 5.1
2016-Jun-20 17:33N 34°39' E 135°10'8 0.6
2016-Jun-20 04:33N 34°37' E 135°01'5 5.1
2016-Jun-20 03:33N 34°37' E 135°07'3 3.0
2016-Jun-20 02:33N 34°39' E 135°10'0 0.0
2016-Jun-20 01:33N 34°39' E 135°10'0 0.0
2016-Jun-20 00:33N 34°39' E 135°10'4 0.1
2016-Jun-18 06:34N 34°36' E 135°09'1414.2
2016-Jun-18 05:34N 34°23' E 135°02'1 0.6
2016-Jun-18 04:13N 34°23' E 135°02'914.1
2016-Jun-18 03:33N 34°29' E 135°11'1111.0
2016-Jun-18 02:32N 34°33' E 135°24'1 0.6
2016-Jun-18 01:33N 34°33' E 135°24'1 1.1
2016-Jun-18 00:32N 34°33' E 135°23'1010.1
2016-Jun-17 23:33N 34°37' E 135°12'2 2.4
2016-Jun-17 22:33N 34°39' E 135°10'0 0.0
2016-Jun-16 23:31N 34°39' E 135°10'1 1.5
2016-Jun-16 22:33N 34°40' E 135°11'0 0.0
2016-Jun-16 21:33N 34°40' E 135°11'0 0.0
2016-Jun-16 20:33N 34°40' E 135°11'9 9.2
2016-Jun-16 19:33N 34°38' E 134°60'4 4.3
2016-Jun-16 18:33N 34°36' E 135°04'6 5.7
2016-Jun-16 17:33N 34°39' E 135°10'6 0.2
2016-Jun-15 07:32N 34°35' E 135°04'5 4.6
2016-Jun-15 06:34N 34°38' E 134°59'3 3.1
2016-Jun-15 05:30N 34°38' E 135°03'2 1.6
2016-Jun-15 04:17N 34°37' E 135°01'1 1.0
2016-Jun-15 03:33N 34°37' E 135°00'  
Track history (hours):
 
Tides and Currents Weather Stations Pressure Air Temp Water Temp Dewpoint Dewpoint Depression Visibility Wind Speed Wind Dir Waves Ship Positions

Naikai2

Last reported at 2016-Jun-25 03:25 UTC. Time now 2016-Jun-26 10:10 UTC.
Position N 34°39' E 135°10'.

Length 28 m; draft 2.2 m.

Type: Other ship. MMSI: 431000283.

Date/timePositionNaut miles runAvg speedWind from/ knotsBaromVisibWave heightAir tempDewpointWater temp
2016-Jun-25 03:25N 34°39' E 135°10'7 8.3
2016-Jun-25 02:33N 34°37' E 135°02'1 0.7
2016-Jun-25 01:33N 34°36' E 135°01'8 8.0
2016-Jun-25 00:33N 34°39' E 135°10'20 1.0
2016-Jun-24 04:26N 34°21' E 134°60'1213.7
2016-Jun-24 03:33N 34°29' E 135°10'1110.6
2016-Jun-24 02:33N 34°33' E 135°22'1 0.7
2016-Jun-24 01:33N 34°34' E 135°22'1111.2
2016-Jun-24 00:33N 34°39' E 135°10'1 0.3
2016-Jun-23 19:34N 34°38' E 135°09'10 9.6
2016-Jun-23 18:34N 34°37' E 134°57'9 8.6
2016-Jun-23 17:33N 34°35' E 135°07'5 4.7
2016-Jun-23 16:33N 34°39' E 135°10'1 0.1
2016-Jun-23 02:33N 34°40' E 135°11'8 8.5
2016-Jun-23 01:33N 34°36' E 135°19'3 2.5
2016-Jun-23 00:31N 34°33' E 135°21'1010.3
2016-Jun-22 23:32N 34°28' E 135°11'1512.7
2016-Jun-22 22:23N 34°16' E 134°59'1 0.7
2016-Jun-22 21:16N 34°17' E 134°59'1113.6
2016-Jun-22 20:27N 34°27' E 135°03'1314.3
2016-Jun-22 19:34N 34°39' E 135°10'0 0.0
2016-Jun-22 00:04N 34°39' E 135°10'712.9
2016-Jun-21 23:33N 34°36' E 135°02'2 1.6
2016-Jun-21 22:34N 34°36' E 135°04'6 5.7
2016-Jun-21 21:33N 34°39' E 135°10'0 0.0
2016-Jun-21 13:14N 34°39' E 135°10'911.2
2016-Jun-21 12:26N 34°38' E 134°59'6 6.6
2016-Jun-21 11:34N 34°35' E 135°05'2 2.1
2016-Jun-21 10:33N 34°36' E 135°03'2 1.9
2016-Jun-21 09:33N 34°36' E 135°01'0 0.0
2016-Jun-21 08:33N 34°36' E 135°01'4 2.8
2016-Jun-21 07:17N 34°36' E 134°56'12 6.8
2016-Jun-21 05:34N 34°39' E 135°10'7 0.7
2016-Jun-20 19:30N 34°38' E 135°02'3 3.2
2016-Jun-20 18:33N 34°36' E 135°05'5 5.1
2016-Jun-20 17:33N 34°39' E 135°10'8 0.6
2016-Jun-20 04:33N 34°37' E 135°01'5 5.1
2016-Jun-20 03:33N 34°37' E 135°07'3 3.0
2016-Jun-20 02:33N 34°39' E 135°10'0 0.0
2016-Jun-20 01:33N 34°39' E 135°10'0 0.0
2016-Jun-20 00:33N 34°39' E 135°10'4 0.1
2016-Jun-18 06:34N 34°36' E 135°09'1414.2
2016-Jun-18 05:34N 34°23' E 135°02'1 0.6
2016-Jun-18 04:13N 34°23' E 135°02'914.1
2016-Jun-18 03:33N 34°29' E 135°11'1111.0
2016-Jun-18 02:32N 34°33' E 135°24'1 0.6
2016-Jun-18 01:33N 34°33' E 135°24'1 1.1
2016-Jun-18 00:32N 34°33' E 135°23'1010.1
2016-Jun-17 23:33N 34°37' E 135°12'2 2.4
2016-Jun-17 22:33N 34°39' E 135°10'0 0.0
2016-Jun-16 23:31N 34°39' E 135°10'1 1.5
2016-Jun-16 22:33N 34°40' E 135°11'0 0.0
2016-Jun-16 21:33N 34°40' E 135°11'0 0.0
2016-Jun-16 20:33N 34°40' E 135°11'9 9.2
2016-Jun-16 19:33N 34°38' E 134°60'4 4.3
2016-Jun-16 18:33N 34°36' E 135°04'6 5.7
2016-Jun-16 17:33N 34°39' E 135°10'6 0.2
2016-Jun-15 07:32N 34°35' E 135°04'5 4.6
2016-Jun-15 06:34N 34°38' E 134°59'3 3.1
2016-Jun-15 05:30N 34°38' E 135°03'2 1.6
2016-Jun-15 04:17N 34°37' E 135°01'1 1.0
2016-Jun-15 03:33N 34°37' E 135°00'  

Dump ship's entire track history